createdAt,value
2022-08-29T00:00:00.045Z,1017.78
2022-08-29T00:00:59.747Z,1017.8
2022-08-29T00:01:59.614Z,1017.78
2022-08-29T00:03:01.387Z,1017.75
2022-08-29T00:04:01.295Z,1017.77
2022-08-29T00:05:01.096Z,1017.75
2022-08-29T00:06:01.454Z,1017.73
2022-08-29T00:07:02.544Z,1017.72
2022-08-29T00:08:01.120Z,1017.73
2022-08-29T00:09:00.813Z,1017.73
2022-08-29T00:10:00.521Z,1017.72
2022-08-29T00:11:00.731Z,1017.76
2022-08-29T00:12:00.451Z,1017.75
2022-08-29T00:13:00.134Z,1017.73
2022-08-29T00:13:59.834Z,1017.74
2022-08-29T00:15:01.595Z,1017.69
2022-08-29T00:16:01.281Z,1017.73
2022-08-29T00:17:01.237Z,1017.77
2022-08-29T00:18:01.005Z,1017.76
2022-08-29T00:19:00.685Z,1017.8
2022-08-29T00:20:00.383Z,1017.8
2022-08-29T00:21:00.091Z,1017.76
2022-08-29T00:21:59.739Z,1017.77
2022-08-29T00:23:01.420Z,1017.78
2022-08-29T00:24:01.223Z,1017.75
2022-08-29T00:25:01.148Z,1017.77
2022-08-29T00:26:02.148Z,1017.72
2022-08-29T00:27:01.467Z,1017.76
2022-08-29T00:28:00.839Z,1017.76
2022-08-29T00:29:00.546Z,1017.8
2022-08-29T00:30:00.458Z,1017.74
2022-08-29T00:31:00.124Z,1017.82
2022-08-29T00:31:59.816Z,1017.88
2022-08-29T00:33:01.545Z,1017.92
2022-08-29T00:34:01.276Z,1017.91
2022-08-29T00:35:00.918Z,1017.88
2022-08-29T00:36:00.692Z,1017.96
2022-08-29T00:37:01.115Z,1017.96
2022-08-29T00:38:00.802Z,1017.97
2022-08-29T00:39:01.115Z,1017.96
2022-08-29T00:40:00.895Z,1018
2022-08-29T00:41:00.822Z,1018.02
2022-08-29T00:42:00.641Z,1018.01
2022-08-29T00:43:01.056Z,1018
2022-08-29T00:44:00.691Z,1018.03
2022-08-29T00:45:00.353Z,1018.02
2022-08-29T00:46:00.220Z,1018.02
2022-08-29T00:46:59.991Z,1018.02
2022-08-29T00:48:00.267Z,1018.03
2022-08-29T00:48:59.969Z,1018.07
2022-08-29T00:50:00.250Z,1018.02
2022-08-29T00:50:59.882Z,1018.05
2022-08-29T00:51:59.577Z,1018.02
2022-08-29T00:53:02.670Z,1018.08
2022-08-29T00:54:01.132Z,1018.06
2022-08-29T00:55:00.827Z,1018.03
2022-08-29T00:56:00.528Z,1018.05
2022-08-29T00:57:00.200Z,1018.05
2022-08-29T00:58:06.290Z,1018.05
2022-08-29T00:59:01.466Z,1018.11
2022-08-29T01:00:00.966Z,1018.09
2022-08-29T01:01:00.722Z,1018.04
2022-08-29T01:02:00.907Z,1018.07
2022-08-29T01:03:10.967Z,1018.05
2022-08-29T01:04:00.672Z,1017.98
2022-08-29T01:05:00.367Z,1018.02
2022-08-29T01:06:00.012Z,1017.98
2022-08-29T01:06:59.890Z,1018.01
2022-08-29T01:08:11.189Z,1017.96
2022-08-29T01:09:00.711Z,1017.96
2022-08-29T01:10:00.399Z,1018.01
2022-08-29T01:11:01.451Z,1018.02
2022-08-29T01:12:01.277Z,1018.02
2022-08-29T01:13:14.328Z,1018
2022-08-29T01:14:01.052Z,1017.97
2022-08-29T01:15:00.864Z,1017.96
2022-08-29T01:16:00.753Z,1017.93
2022-08-29T01:17:00.562Z,1017.95
2022-08-29T01:18:15.376Z,1017.96
2022-08-29T01:19:01.467Z,1017.99
2022-08-29T01:20:01.339Z,1017.95
2022-08-29T01:21:01.189Z,1017.95
2022-08-29T01:22:00.981Z,1017.98
2022-08-29T01:23:00.923Z,1018.04
2022-08-29T01:24:00.815Z,1018
2022-08-29T01:25:00.074Z,1017.98
2022-08-29T01:25:59.797Z,1018.03
2022-08-29T01:27:01.550Z,1018.05
2022-08-29T01:28:01.483Z,1018.05
2022-08-29T01:29:01.151Z,1018.05
2022-08-29T01:30:00.836Z,1018.02
2022-08-29T01:31:00.862Z,1018.01
2022-08-29T01:32:00.637Z,1018.07
2022-08-29T01:33:00.360Z,1018.08
2022-08-29T01:34:00.069Z,1018.06
2022-08-29T01:34:59.897Z,1018.07
2022-08-29T01:35:59.788Z,1018.1
2022-08-29T01:37:01.523Z,1018.11
2022-08-29T01:38:00.948Z,1018.13
2022-08-29T01:39:00.597Z,1018.13
2022-08-29T01:40:00.358Z,1018.16
2022-08-29T01:41:00.036Z,1018.13
2022-08-29T01:41:59.704Z,1018.15
2022-08-29T01:43:01.578Z,1018.13
2022-08-29T01:44:01.354Z,1018.14
2022-08-29T01:45:02.809Z,1018.11
2022-08-29T01:46:01.140Z,1018.11
2022-08-29T01:47:03.108Z,1018.1
2022-08-29T01:48:03.556Z,1018.13
2022-08-29T01:49:01.270Z,1018.13
2022-08-29T01:50:00.867Z,1018.14
2022-08-29T01:51:00.595Z,1018.09
2022-08-29T01:52:00.280Z,1018.11
2022-08-29T01:53:01.521Z,1018.07
2022-08-29T01:54:00.893Z,1018.05
2022-08-29T01:55:00.556Z,1018.08
2022-08-29T01:56:00.417Z,1018.1
2022-08-29T01:57:00.065Z,1018.09
2022-08-29T01:57:59.796Z,1018.07
2022-08-29T01:59:01.474Z,1018.07
2022-08-29T02:00:01.546Z,1018.04
2022-08-29T02:01:01.344Z,1018.06
2022-08-29T02:02:01.258Z,1018.05
2022-08-29T02:03:01.231Z,1018.05
2022-08-29T02:04:00.857Z,1018.04
2022-08-29T02:05:01.342Z,1018.05
2022-08-29T02:06:00.901Z,1018.08
2022-08-29T02:07:01.277Z,1018.04
2022-08-29T02:08:00.588Z,1018.07
2022-08-29T02:09:00.292Z,1018.08
2022-08-29T02:09:59.979Z,1018.1
2022-08-29T02:10:59.693Z,1018.08
2022-08-29T02:12:01.453Z,1018.09
2022-08-29T02:13:01.223Z,1018.05
2022-08-29T02:14:01.299Z,1018.05
2022-08-29T02:15:00.934Z,1017.99
2022-08-29T02:16:01.165Z,1018.05
2022-08-29T02:17:00.957Z,1018.04
2022-08-29T02:18:00.650Z,1018.03
2022-08-29T02:19:00.353Z,1018.06
2022-08-29T02:20:00.046Z,1018.02
2022-08-29T02:21:00.283Z,1018.05
2022-08-29T02:22:00.685Z,1018.07
2022-08-29T02:23:00.315Z,1018.02
2022-08-29T02:24:07.622Z,1018.09
2022-08-29T02:25:00.999Z,1018.08
2022-08-29T02:26:00.707Z,1018.08
2022-08-29T02:27:00.420Z,1018.08
2022-08-29T02:28:00.261Z,1018.06
2022-08-29T02:29:02.136Z,1018.05
2022-08-29T02:30:00.947Z,1018.07
2022-08-29T02:31:00.757Z,1018.07
2022-08-29T02:32:00.500Z,1018.04
2022-08-29T02:33:00.151Z,1018.04
2022-08-29T02:34:05.345Z,1018.1
2022-08-29T02:35:01.277Z,1018.1
2022-08-29T02:36:01.404Z,1018.12
2022-08-29T02:37:01.175Z,1018.12
2022-08-29T02:38:00.865Z,1018.07
2022-08-29T02:39:08.588Z,1018.11
2022-08-29T02:40:01.626Z,1018.14
2022-08-29T02:41:01.328Z,1018.13
2022-08-29T02:42:01.062Z,1018.08
2022-08-29T02:43:00.925Z,1018.11
2022-08-29T02:44:11.196Z,1018.1
2022-08-29T02:45:00.617Z,1018.11
2022-08-29T02:46:00.304Z,1018.13
2022-08-29T02:47:00.035Z,1018.13
2022-08-29T02:47:59.849Z,1018.14
2022-08-29T02:49:12.562Z,1018.14
2022-08-29T02:50:00.835Z,1018.13
2022-08-29T02:51:00.685Z,1018.09
2022-08-29T02:52:00.493Z,1018.1
2022-08-29T02:53:00.264Z,1018.14
2022-08-29T02:54:00.108Z,1018.13
2022-08-29T02:54:59.863Z,1018.11
2022-08-29T02:56:01.628Z,1018.11
2022-08-29T02:57:01.310Z,1018.1
2022-08-29T02:58:01.119Z,1018.09
2022-08-29T02:59:01.090Z,1018.11
2022-08-29T03:00:00.832Z,1018.13
2022-08-29T03:01:00.659Z,1018.16
2022-08-29T03:02:00.455Z,1018.14
2022-08-29T03:03:00.873Z,1018.11
2022-08-29T03:04:00.623Z,1018.17
2022-08-29T03:05:00.363Z,1018.09
2022-08-29T03:06:00.036Z,1018.12
2022-08-29T03:06:59.749Z,1018.16
2022-08-29T03:08:01.484Z,1018.14
2022-08-29T03:09:01.190Z,1018.13
2022-08-29T03:10:00.869Z,1018.15
2022-08-29T03:11:00.501Z,1018.16
2022-08-29T03:12:00.191Z,1018.16
2022-08-29T03:12:59.991Z,1018.15
2022-08-29T03:13:59.825Z,1018.17
2022-08-29T03:15:01.629Z,1018.16
2022-08-29T03:16:01.403Z,1018.16
2022-08-29T03:17:01.139Z,1018.18
2022-08-29T03:18:01.182Z,1018.18
2022-08-29T03:19:01.162Z,1018.18
2022-08-29T03:20:00.843Z,1018.17
2022-08-29T03:21:00.565Z,1018.15
2022-08-29T03:22:00.221Z,1018.18
2022-08-29T03:22:59.981Z,1018.17
2022-08-29T03:23:59.758Z,1018.22
2022-08-29T03:25:01.412Z,1018.2
2022-08-29T03:26:01.284Z,1018.2
2022-08-29T03:27:01.391Z,1018.23
2022-08-29T03:28:01.132Z,1018.26
2022-08-29T03:29:00.914Z,1018.28
2022-08-29T03:30:00.612Z,1018.29
2022-08-29T03:31:00.365Z,1018.32
2022-08-29T03:32:00.079Z,1018.33
2022-08-29T03:32:59.744Z,1018.32
2022-08-29T03:34:01.470Z,1018.34
2022-08-29T03:35:01.164Z,1018.31
2022-08-29T03:36:00.855Z,1018.32
2022-08-29T03:37:00.555Z,1018.32
2022-08-29T03:38:00.259Z,1018.3
2022-08-29T03:38:59.949Z,1018.27
2022-08-29T03:39:59.690Z,1018.29
2022-08-29T03:41:01.922Z,1018.26
2022-08-29T03:42:00.504Z,1018.31
2022-08-29T03:43:00.212Z,1018.27
2022-08-29T03:43:59.880Z,1018.32
2022-08-29T03:44:59.573Z,1018.28
2022-08-29T03:46:01.257Z,1018.29
2022-08-29T03:47:00.988Z,1018.28
2022-08-29T03:48:00.729Z,1018.28
2022-08-29T03:49:00.426Z,1018.27
2022-08-29T03:50:00.188Z,1018.24
2022-08-29T03:50:59.934Z,1018.23
2022-08-29T03:51:59.571Z,1018.3
2022-08-29T03:53:01.971Z,1018.29
2022-08-29T03:54:00.664Z,1018.24
2022-08-29T03:55:00.580Z,1018.23
2022-08-29T03:56:00.283Z,1018.24
2022-08-29T03:56:59.971Z,1018.2
2022-08-29T03:57:59.843Z,1018.21
2022-08-29T03:59:01.515Z,1018.21
2022-08-29T04:00:01.740Z,1018.21
2022-08-29T04:01:01.531Z,1018.21
2022-08-29T04:02:01.295Z,1018.21
2022-08-29T04:03:01.021Z,1018.21
2022-08-29T04:04:00.732Z,1018.26
2022-08-29T04:05:08.012Z,1018.21
2022-08-29T04:06:00.865Z,1018.21
2022-08-29T04:07:00.555Z,1018.29
2022-08-29T04:08:00.248Z,1018.28
2022-08-29T04:08:59.948Z,1018.31
2022-08-29T04:10:07.789Z,1018.25
2022-08-29T04:11:00.792Z,1018.26
2022-08-29T04:12:00.435Z,1018.26
2022-08-29T04:13:00.182Z,1018.24
2022-08-29T04:14:00.283Z,1018.28
2022-08-29T04:15:10.824Z,1018.32
2022-08-29T04:16:01.026Z,1018.27
2022-08-29T04:17:00.815Z,1018.26
2022-08-29T04:18:00.511Z,1018.28
2022-08-29T04:19:00.239Z,1018.26
2022-08-29T04:20:13.349Z,1018.24
2022-08-29T04:21:00.959Z,1018.27
2022-08-29T04:22:00.750Z,1018.26
2022-08-29T04:23:00.597Z,1018.26
2022-08-29T04:24:00.258Z,1018.27
2022-08-29T04:25:14.257Z,1018.29
2022-08-29T04:26:26.823Z,1018.25
2022-08-29T04:27:01.189Z,1018.28
2022-08-29T04:28:00.895Z,1018.3
2022-08-29T04:29:00.615Z,1018.27
2022-08-29T04:30:15.523Z,1018.29
2022-08-29T04:31:01.455Z,1018.32
2022-08-29T04:32:01.319Z,1018.3
2022-08-29T04:33:01.118Z,1018.25
2022-08-29T04:34:01.149Z,1018.29
2022-08-29T04:35:00.835Z,1018.27
2022-08-29T04:36:00.742Z,1018.31
2022-08-29T04:37:00.502Z,1018.29
2022-08-29T04:38:00.423Z,1018.32
2022-08-29T04:39:00.159Z,1018.33
2022-08-29T04:40:00.112Z,1018.33
2022-08-29T04:40:59.959Z,1018.32
2022-08-29T04:41:59.621Z,1018.33
2022-08-29T04:43:01.404Z,1018.33
2022-08-29T04:44:01.121Z,1018.36
2022-08-29T04:45:00.907Z,1018.36
2022-08-29T04:46:01.907Z,1018.37
2022-08-29T04:47:01.421Z,1018.42
2022-08-29T04:48:03.456Z,1018.4
2022-08-29T04:49:04.195Z,1018.37
2022-08-29T04:50:01.039Z,1018.44
2022-08-29T04:51:00.741Z,1018.42
2022-08-29T04:52:00.446Z,1018.39
2022-08-29T04:53:00.283Z,1018.39
2022-08-29T04:54:01.303Z,1018.43
2022-08-29T04:55:00.962Z,1018.46
2022-08-29T04:56:00.781Z,1018.45
2022-08-29T04:57:00.496Z,1018.45
2022-08-29T04:58:01.410Z,1018.49
2022-08-29T04:59:01.244Z,1018.48
2022-08-29T05:00:00.925Z,1018.51
2022-08-29T05:01:01.014Z,1018.51
2022-08-29T05:02:00.867Z,1018.53
2022-08-29T05:03:00.714Z,1018.47
2022-08-29T05:04:01.205Z,1018.49
2022-08-29T05:05:00.915Z,1018.52
2022-08-29T05:06:00.590Z,1018.52
2022-08-29T05:07:00.365Z,1018.54
2022-08-29T05:08:00.037Z,1018.51
2022-08-29T05:09:00.223Z,1018.51
2022-08-29T05:10:00.042Z,1018.52
2022-08-29T05:10:59.613Z,1018.48
2022-08-29T05:12:01.388Z,1018.47
2022-08-29T05:13:01.350Z,1018.46
2022-08-29T05:14:01.062Z,1018.52
2022-08-29T05:15:00.986Z,1018.56
2022-08-29T05:16:00.719Z,1018.59
2022-08-29T05:17:01.202Z,1018.57
2022-08-29T05:18:00.905Z,1018.56
2022-08-29T05:19:00.696Z,1018.63
2022-08-29T05:20:00.421Z,1018.57
2022-08-29T05:21:00.315Z,1018.6
2022-08-29T05:22:00.016Z,1018.62
2022-08-29T05:22:59.710Z,1018.6
2022-08-29T05:24:01.368Z,1018.65
2022-08-29T05:25:01.223Z,1018.64
2022-08-29T05:26:01.493Z,1018.68
2022-08-29T05:27:01.185Z,1018.68
2022-08-29T05:28:00.870Z,1018.68
2022-08-29T05:29:00.520Z,1018.68
2022-08-29T05:30:00.175Z,1018.73
2022-08-29T05:31:00.163Z,1018.75
2022-08-29T05:32:00.034Z,1018.76
2022-08-29T05:32:59.774Z,1018.77
2022-08-29T05:34:01.530Z,1018.76
2022-08-29T05:35:01.858Z,1018.8
2022-08-29T05:36:01.341Z,1018.79
2022-08-29T05:37:00.729Z,1018.78
2022-08-29T05:38:00.456Z,1018.79
2022-08-29T05:39:00.136Z,1018.86
2022-08-29T05:40:00.257Z,1018.87
2022-08-29T05:41:00.038Z,1018.87
2022-08-29T05:42:00.421Z,1018.9
2022-08-29T05:43:00.166Z,1018.85
2022-08-29T05:44:01.179Z,1018.88
2022-08-29T05:45:01.102Z,1018.83
2022-08-29T05:46:00.751Z,1018.84
2022-08-29T05:47:01.617Z,1018.87
2022-08-29T05:48:01.801Z,1018.89
2022-08-29T05:49:01.420Z,1018.92
2022-08-29T05:50:01.129Z,1018.92
2022-08-29T05:51:03.327Z,1018.91
2022-08-29T05:52:01.325Z,1018.88
2022-08-29T05:53:01.123Z,1018.9
2022-08-29T05:54:01.089Z,1018.92
2022-08-29T05:55:00.853Z,1018.92
2022-08-29T05:56:02.790Z,1018.93
2022-08-29T05:57:01.429Z,1018.94
2022-08-29T05:58:01.078Z,1018.96
2022-08-29T05:59:00.762Z,1018.95
2022-08-29T06:00:00.415Z,1018.96
2022-08-29T06:01:09.517Z,1018.92
2022-08-29T06:02:02.426Z,1018.93
2022-08-29T06:03:01.679Z,1018.9
2022-08-29T06:04:01.232Z,1018.94
2022-08-29T06:05:01.116Z,1018.9
2022-08-29T06:06:14.207Z,1018.9
2022-08-29T06:07:01.447Z,1018.89
2022-08-29T06:08:01.163Z,1018.93
2022-08-29T06:09:00.949Z,1018.95
2022-08-29T06:10:03.872Z,1018.94
2022-08-29T06:11:00.755Z,1018.91
2022-08-29T06:12:00.584Z,1018.87
2022-08-29T06:13:00.354Z,1018.9
2022-08-29T06:14:00.099Z,1018.92
2022-08-29T06:14:59.886Z,1018.95
2022-08-29T06:15:59.567Z,1018.92
2022-08-29T06:17:01.749Z,1018.95
2022-08-29T06:18:01.305Z,1018.99
2022-08-29T06:19:00.996Z,1019.01
2022-08-29T06:20:00.634Z,1019.06
2022-08-29T06:21:00.358Z,1019.02
2022-08-29T06:22:00.023Z,1019.02
2022-08-29T06:22:59.841Z,1019.05
2022-08-29T06:24:01.555Z,1019.01
2022-08-29T06:25:08.618Z,1019.07
2022-08-29T06:26:01.086Z,1019.08
2022-08-29T06:27:00.733Z,1019.06
2022-08-29T06:28:00.856Z,1019.07
2022-08-29T06:29:01.564Z,1019.08
2022-08-29T06:30:02.169Z,1019.11
2022-08-29T06:31:01.476Z,1019.18
2022-08-29T06:32:01.292Z,1019.18
2022-08-29T06:33:00.968Z,1019.17
2022-08-29T06:34:00.797Z,1019.17
2022-08-29T06:35:00.436Z,1019.19
2022-08-29T06:36:00.232Z,1019.22
2022-08-29T06:36:59.924Z,1019.17
2022-08-29T06:37:59.911Z,1019.24
2022-08-29T06:38:59.568Z,1019.24
2022-08-29T06:40:02.241Z,1019.16
2022-08-29T06:41:01.369Z,1019.17
2022-08-29T06:42:01.495Z,1019.15
2022-08-29T06:43:01.393Z,1019.16
2022-08-29T06:44:01.143Z,1019.14
2022-08-29T06:45:00.785Z,1019.2
2022-08-29T06:46:00.504Z,1019.22
2022-08-29T06:47:00.268Z,1019.23
2022-08-29T06:47:59.961Z,1019.21
2022-08-29T06:48:59.685Z,1019.21
2022-08-29T06:50:01.428Z,1019.22
2022-08-29T06:51:01.111Z,1019.18
2022-08-29T06:52:01.198Z,1019.19
2022-08-29T06:53:14.767Z,1019.19
2022-08-29T06:54:00.716Z,1019.23
2022-08-29T06:55:00.734Z,1019.21
2022-08-29T06:56:00.953Z,1019.21
2022-08-29T06:57:00.758Z,1019.21
2022-08-29T06:58:00.483Z,1019.25
2022-08-29T06:59:00.242Z,1019.25
2022-08-29T06:59:59.860Z,1019.25
2022-08-29T07:01:01.383Z,1019.27
2022-08-29T07:02:01.079Z,1019.27
2022-08-29T07:03:00.697Z,1019.23
2022-08-29T07:04:00.422Z,1019.29
2022-08-29T07:05:00.177Z,1019.27
2022-08-29T07:05:59.869Z,1019.28
2022-08-29T07:07:01.801Z,1019.3
2022-08-29T07:08:01.530Z,1019.27
2022-08-29T07:09:01.265Z,1019.26
2022-08-29T07:10:01.145Z,1019.31
2022-08-29T07:11:00.930Z,1019.29
2022-08-29T07:12:00.749Z,1019.25
2022-08-29T07:13:00.431Z,1019.32
2022-08-29T07:14:00.163Z,1019.34
2022-08-29T07:14:59.791Z,1019.32
2022-08-29T07:16:01.532Z,1019.32
2022-08-29T07:17:01.281Z,1019.4
2022-08-29T07:18:01.922Z,1019.39
2022-08-29T07:19:01.108Z,1019.41
2022-08-29T07:20:00.579Z,1019.43
2022-08-29T07:21:00.282Z,1019.45
2022-08-29T07:22:00.316Z,1019.46
2022-08-29T07:23:00.015Z,1019.42
2022-08-29T07:23:59.801Z,1019.42
2022-08-29T07:25:02.368Z,1019.43
2022-08-29T07:26:01.232Z,1019.48
2022-08-29T07:27:00.933Z,1019.41
2022-08-29T07:28:00.647Z,1019.44
2022-08-29T07:29:00.371Z,1019.42
2022-08-29T07:30:01.053Z,1019.42
2022-08-29T07:31:00.934Z,1019.4
2022-08-29T07:32:02.285Z,1019.42
2022-08-29T07:33:00.779Z,1019.44
2022-08-29T07:34:02.721Z,1019.43
2022-08-29T07:35:01.504Z,1019.47
2022-08-29T07:36:01.334Z,1019.46
2022-08-29T07:37:07.110Z,1019.54
2022-08-29T07:38:00.925Z,1019.51
2022-08-29T07:39:00.648Z,1019.56
2022-08-29T07:40:00.535Z,1019.56
2022-08-29T07:41:01.299Z,1019.55
2022-08-29T07:42:11.748Z,1019.58
2022-08-29T07:43:00.951Z,1019.6
2022-08-29T07:44:00.658Z,1019.52
2022-08-29T07:45:00.339Z,1019.57
2022-08-29T07:46:00.131Z,1019.5
2022-08-29T07:46:59.944Z,1019.58
2022-08-29T07:47:59.648Z,1019.52
2022-08-29T07:49:01.400Z,1019.51
2022-08-29T07:50:01.059Z,1019.5
2022-08-29T07:51:00.791Z,1019.47
2022-08-29T07:52:00.486Z,1019.51
2022-08-29T07:53:00.458Z,1019.57
2022-08-29T07:54:00.231Z,1019.53
2022-08-29T07:55:01.792Z,1019.57
2022-08-29T07:56:01.124Z,1019.56
2022-08-29T07:57:00.733Z,1019.54
2022-08-29T07:58:00.424Z,1019.55
2022-08-29T07:59:00.137Z,1019.59
2022-08-29T07:59:59.916Z,1019.57
2022-08-29T08:00:59.809Z,1019.62
2022-08-29T08:02:03.109Z,1019.59
2022-08-29T08:03:00.790Z,1019.59
2022-08-29T08:04:01.016Z,1019.57
2022-08-29T08:05:00.779Z,1019.54
2022-08-29T08:06:00.992Z,1019.56
2022-08-29T08:07:00.709Z,1019.62
2022-08-29T08:08:05.284Z,1019.58
2022-08-29T08:09:01.715Z,1019.59
2022-08-29T08:10:01.685Z,1019.58
2022-08-29T08:11:01.978Z,1019.53
2022-08-29T08:12:03.875Z,1019.52
2022-08-29T08:13:00.740Z,1019.49
2022-08-29T08:14:00.441Z,1019.49
2022-08-29T08:15:00.129Z,1019.5
2022-08-29T08:15:59.935Z,1019.48
2022-08-29T08:16:59.906Z,1019.54
2022-08-29T08:17:59.634Z,1019.5
2022-08-29T08:19:02.129Z,1019.53
2022-08-29T08:20:01.589Z,1019.58
2022-08-29T08:21:00.878Z,1019.58
2022-08-29T08:22:00.806Z,1019.62
2022-08-29T08:23:00.640Z,1019.61
2022-08-29T08:24:00.450Z,1019.63
2022-08-29T08:25:00.536Z,1019.68
2022-08-29T08:26:00.558Z,1019.67
2022-08-29T08:27:00.572Z,1019.71
2022-08-29T08:28:00.327Z,1019.71
2022-08-29T08:28:59.977Z,1019.67
2022-08-29T08:30:00.058Z,1019.67
2022-08-29T08:31:05.029Z,1019.73
2022-08-29T08:32:01.049Z,1019.67
2022-08-29T08:33:01.590Z,1019.68
2022-08-29T08:34:00.673Z,1019.69
2022-08-29T08:35:00.361Z,1019.71
2022-08-29T08:36:00.067Z,1019.7
2022-08-29T08:36:59.751Z,1019.71
2022-08-29T08:38:01.512Z,1019.67
2022-08-29T08:39:02.279Z,1019.69
2022-08-29T08:40:01.267Z,1019.7
2022-08-29T08:41:01.020Z,1019.69
2022-08-29T08:42:00.710Z,1019.66
2022-08-29T08:43:00.426Z,1019.69
2022-08-29T08:44:01.215Z,1019.69
2022-08-29T08:45:00.935Z,1019.64
2022-08-29T08:46:00.683Z,1019.65
2022-08-29T08:47:00.479Z,1019.66
2022-08-29T08:48:00.158Z,1019.67
2022-08-29T08:48:59.835Z,1019.66
2022-08-29T08:50:01.588Z,1019.67
2022-08-29T08:51:01.303Z,1019.7
2022-08-29T08:52:01.627Z,1019.67
2022-08-29T08:53:01.097Z,1019.61
2022-08-29T08:54:00.799Z,1019.59
2022-08-29T08:55:00.622Z,1019.57
2022-08-29T08:56:00.321Z,1019.64
2022-08-29T08:57:02.226Z,1019.6
2022-08-29T08:58:01.337Z,1019.53
2022-08-29T08:59:01.038Z,1019.6
2022-08-29T09:00:00.996Z,1019.58
2022-08-29T09:01:00.894Z,1019.59
2022-08-29T09:02:06.569Z,1019.61
2022-08-29T09:03:00.784Z,1019.62
2022-08-29T09:04:00.560Z,1019.65
2022-08-29T09:05:00.292Z,1019.66
2022-08-29T09:06:00.411Z,1019.7
2022-08-29T09:07:00.183Z,1019.68
2022-08-29T09:07:59.917Z,1019.71
2022-08-29T09:08:59.674Z,1019.67
2022-08-29T09:10:01.409Z,1019.68
2022-08-29T09:11:01.105Z,1019.66
2022-08-29T09:12:00.743Z,1019.7
2022-08-29T09:13:00.510Z,1019.72
2022-08-29T09:14:00.329Z,1019.69
2022-08-29T09:15:00.005Z,1019.65
2022-08-29T09:15:59.700Z,1019.64
2022-08-29T09:17:01.467Z,1019.67
2022-08-29T09:18:00.640Z,1019.64
2022-08-29T09:19:00.357Z,1019.63
2022-08-29T09:20:00.347Z,1019.6
2022-08-29T09:21:00.019Z,1019.65
2022-08-29T09:21:59.761Z,1019.58
2022-08-29T09:23:02.848Z,1019.65
2022-08-29T09:24:01.515Z,1019.59
2022-08-29T09:25:01.200Z,1019.64
2022-08-29T09:26:00.894Z,1019.6
2022-08-29T09:27:00.592Z,1019.61
2022-08-29T09:28:04.849Z,1019.62
2022-08-29T09:29:01.437Z,1019.66
2022-08-29T09:30:01.131Z,1019.69
2022-08-29T09:31:01.056Z,1019.72
2022-08-29T09:32:00.553Z,1019.72
2022-08-29T09:33:09.100Z,1019.71
2022-08-29T09:34:00.859Z,1019.71
2022-08-29T09:35:09.297Z,1019.77
2022-08-29T09:36:01.574Z,1019.76
2022-08-29T09:37:01.295Z,1019.73
2022-08-29T09:38:10.513Z,1019.73
2022-08-29T09:39:01.120Z,1019.74
2022-08-29T09:40:00.858Z,1019.73
2022-08-29T09:41:00.726Z,1019.73
2022-08-29T09:42:00.487Z,1019.73
2022-08-29T09:43:10.610Z,1019.7
2022-08-29T09:44:01.519Z,1019.7
2022-08-29T09:45:01.330Z,1019.68
2022-08-29T09:46:01.097Z,1019.69
2022-08-29T09:47:00.726Z,1019.59
2022-08-29T09:48:13.961Z,1019.65
2022-08-29T09:49:01.425Z,1019.67
2022-08-29T09:50:01.161Z,1019.66
2022-08-29T09:51:00.982Z,1019.62
2022-08-29T09:52:00.726Z,1019.65
2022-08-29T09:53:00.474Z,1019.62
2022-08-29T09:54:00.170Z,1019.62
2022-08-29T09:54:59.865Z,1019.64
2022-08-29T09:56:01.514Z,1019.61
2022-08-29T09:57:01.204Z,1019.63
2022-08-29T09:58:00.904Z,1019.57
2022-08-29T09:59:00.634Z,1019.64
2022-08-29T10:00:00.270Z,1019.57
2022-08-29T10:01:00.508Z,1019.57
2022-08-29T10:02:00.277Z,1019.58
2022-08-29T10:02:59.930Z,1019.64
2022-08-29T10:03:59.633Z,1019.61
2022-08-29T10:05:01.379Z,1019.58
2022-08-29T10:06:00.875Z,1019.58
2022-08-29T10:07:00.553Z,1019.6
2022-08-29T10:08:00.225Z,1019.61
2022-08-29T10:09:00.082Z,1019.62
2022-08-29T10:09:59.762Z,1019.61
2022-08-29T10:11:01.780Z,1019.6
2022-08-29T10:12:01.097Z,1019.57
2022-08-29T10:13:00.903Z,1019.58
2022-08-29T10:14:00.780Z,1019.58
2022-08-29T10:15:00.534Z,1019.58
2022-08-29T10:16:00.306Z,1019.58
2022-08-29T10:17:01.397Z,1019.53
2022-08-29T10:18:01.076Z,1019.54
2022-08-29T10:19:00.820Z,1019.57
2022-08-29T10:20:00.574Z,1019.53
2022-08-29T10:21:00.447Z,1019.56
2022-08-29T10:22:00.190Z,1019.53
2022-08-29T10:23:01.187Z,1019.55
2022-08-29T10:24:02.319Z,1019.56
2022-08-29T10:25:00.902Z,1019.52
2022-08-29T10:26:00.691Z,1019.53
2022-08-29T10:27:00.416Z,1019.56
2022-08-29T10:28:00.414Z,1019.57
2022-08-29T10:29:00.087Z,1019.55
2022-08-29T10:29:59.782Z,1019.61
2022-08-29T10:31:01.037Z,1019.58
2022-08-29T10:32:00.873Z,1019.62
2022-08-29T10:33:00.747Z,1019.58
2022-08-29T10:34:00.447Z,1019.54
2022-08-29T10:35:00.128Z,1019.54
2022-08-29T10:35:59.767Z,1019.55
2022-08-29T10:37:01.483Z,1019.56
2022-08-29T10:38:01.192Z,1019.57
2022-08-29T10:39:00.985Z,1019.55
2022-08-29T10:40:00.840Z,1019.58
2022-08-29T10:41:00.692Z,1019.55
2022-08-29T10:42:00.485Z,1019.56
2022-08-29T10:43:00.757Z,1019.65
2022-08-29T10:44:00.496Z,1019.6
2022-08-29T10:45:00.184Z,1019.59
2022-08-29T10:45:59.936Z,1019.62
2022-08-29T10:46:59.689Z,1019.63
2022-08-29T10:48:01.328Z,1019.64
2022-08-29T10:49:01.041Z,1019.6
2022-08-29T10:50:00.741Z,1019.6
2022-08-29T10:51:00.436Z,1019.64
2022-08-29T10:52:01.192Z,1019.62
2022-08-29T10:53:01.037Z,1019.65
2022-08-29T10:54:00.756Z,1019.63
2022-08-29T10:55:00.483Z,1019.58
2022-08-29T10:56:04.503Z,1019.57
2022-08-29T10:57:00.826Z,1019.63
2022-08-29T10:58:00.579Z,1019.56
2022-08-29T10:59:00.642Z,1019.6
2022-08-29T11:00:00.703Z,1019.57
2022-08-29T11:01:04.156Z,1019.59
2022-08-29T11:02:01.582Z,1019.59
2022-08-29T11:03:01.029Z,1019.58
2022-08-29T11:04:00.773Z,1019.61
2022-08-29T11:05:00.484Z,1019.61
2022-08-29T11:06:00.137Z,1019.62
2022-08-29T11:06:59.827Z,1019.58
2022-08-29T11:08:01.570Z,1019.67
2022-08-29T11:09:01.833Z,1019.62
2022-08-29T11:10:00.577Z,1019.65
2022-08-29T11:11:01.630Z,1019.68
2022-08-29T11:12:00.768Z,1019.61
2022-08-29T11:13:00.445Z,1019.63
2022-08-29T11:14:06.070Z,1019.59
2022-08-29T11:15:01.101Z,1019.6
2022-08-29T11:16:00.843Z,1019.58
2022-08-29T11:17:03.141Z,1019.61
2022-08-29T11:18:00.653Z,1019.67
2022-08-29T11:19:05.958Z,1019.67
2022-08-29T11:20:01.620Z,1019.68
2022-08-29T11:21:00.958Z,1019.65
2022-08-29T11:22:00.744Z,1019.68
2022-08-29T11:23:00.442Z,1019.6
2022-08-29T11:24:08.571Z,1019.63
2022-08-29T11:25:01.172Z,1019.6
2022-08-29T11:26:00.875Z,1019.65
2022-08-29T11:27:00.570Z,1019.59
2022-08-29T11:28:00.296Z,1019.63
2022-08-29T11:29:11.567Z,1019.61
2022-08-29T11:30:01.571Z,1019.59
2022-08-29T11:31:01.374Z,1019.57
2022-08-29T11:32:01.136Z,1019.6
2022-08-29T11:33:00.915Z,1019.59
2022-08-29T11:34:14.016Z,1019.58
2022-08-29T11:35:00.626Z,1019.59
2022-08-29T11:36:04.945Z,1019.65
2022-08-29T11:37:01.150Z,1019.62
2022-08-29T11:38:00.843Z,1019.62
2022-08-29T11:39:00.547Z,1019.7
2022-08-29T11:40:00.904Z,1019.66
2022-08-29T11:42:01.402Z,1019.7
2022-08-29T11:43:01.246Z,1019.72
2022-08-29T11:44:01.263Z,1019.71
2022-08-29T11:45:01.005Z,1019.65
2022-08-29T11:46:00.698Z,1019.68
2022-08-29T11:47:00.617Z,1019.64
2022-08-29T11:48:01.091Z,1019.63
2022-08-29T11:49:00.794Z,1019.6
2022-08-29T11:50:00.518Z,1019.58
2022-08-29T11:51:00.235Z,1019.64
2022-08-29T11:51:59.924Z,1019.56
2022-08-29T11:52:59.613Z,1019.57
2022-08-29T11:54:01.375Z,1019.57
2022-08-29T11:55:01.196Z,1019.59
2022-08-29T11:56:00.860Z,1019.56
2022-08-29T11:57:00.559Z,1019.63
2022-08-29T11:58:04.174Z,1019.55
2022-08-29T11:59:01.401Z,1019.57
2022-08-29T12:00:01.095Z,1019.62
2022-08-29T12:01:01.107Z,1019.57
2022-08-29T12:02:01.077Z,1019.58
2022-08-29T12:03:00.967Z,1019.56
2022-08-29T12:04:01.215Z,1019.58
2022-08-29T12:05:00.920Z,1019.54
2022-08-29T12:06:00.580Z,1019.53
2022-08-29T12:07:01.355Z,1019.53
2022-08-29T12:08:14.486Z,1019.54
2022-08-29T12:09:04.774Z,1019.52